createdAt,value
2023-02-06T00:00:25.733Z,102935.03
2023-02-06T00:02:51.929Z,102934.19
2023-02-06T00:05:18.234Z,102929.94
2023-02-06T00:07:44.429Z,102931.56
2023-02-06T00:10:10.572Z,102923.72
2023-02-06T00:12:36.762Z,102930.63
2023-02-06T00:15:02.885Z,102929.75
2023-02-06T00:17:29.010Z,102939.19
2023-02-06T00:19:55.167Z,102938.97
2023-02-06T00:22:21.294Z,102941.56
2023-02-06T00:24:47.445Z,102944.00
2023-02-06T00:27:13.578Z,102955.13
2023-02-06T00:29:39.770Z,102950.75
2023-02-06T00:32:05.893Z,102948.97
2023-02-06T00:34:32.087Z,102948.13
2023-02-06T00:36:58.229Z,102948.81
2023-02-06T00:39:24.341Z,102954.78
2023-02-06T00:41:50.548Z,102958.94
2023-02-06T00:44:16.756Z,102954.47
2023-02-06T00:46:42.958Z,102968.03
2023-02-06T00:49:09.149Z,102969.50
2023-02-06T00:51:35.287Z,102960.59
2023-02-06T00:54:01.453Z,102970.53
2023-02-06T00:56:27.651Z,102973.63
2023-02-06T00:58:53.823Z,102971.69
2023-02-06T01:01:20.004Z,102977.41
2023-02-06T01:03:46.175Z,102974.66
2023-02-06T01:06:12.341Z,102985.84
2023-02-06T01:08:38.480Z,102986.78
2023-02-06T01:11:04.695Z,102987.91
2023-02-06T01:13:30.855Z,103001.06
2023-02-06T01:15:57.085Z,102999.47
2023-02-06T01:18:23.364Z,103003.13
2023-02-06T01:20:49.570Z,103004.16
2023-02-06T01:23:15.765Z,103003.50
2023-02-06T01:25:41.885Z,103003.63
2023-02-06T01:28:08.088Z,103007.13
2023-02-06T01:30:34.297Z,103004.59
2023-02-06T01:33:00.525Z,103002.16
2023-02-06T01:35:26.691Z,103008.28
2023-02-06T01:37:52.833Z,103013.53
2023-02-06T01:40:18.958Z,103010.38
2023-02-06T01:42:45.140Z,103005.41
2023-02-06T01:45:11.319Z,103002.13
2023-02-06T01:47:37.449Z,102997.78
2023-02-06T01:50:03.639Z,102991.91
2023-02-06T01:52:29.841Z,102990.94
2023-02-06T01:54:56.003Z,102974.63
2023-02-06T01:57:22.179Z,102971.25
2023-02-06T01:59:48.355Z,102970.34
2023-02-06T02:02:14.510Z,102966.91
2023-02-06T02:04:40.661Z,102962.75
2023-02-06T02:07:06.827Z,102961.78
2023-02-06T02:09:33.011Z,102965.22
2023-02-06T02:11:59.162Z,102970.44
2023-02-06T02:14:25.317Z,102963.56
2023-02-06T02:16:51.494Z,102972.97
2023-02-06T02:19:17.660Z,102970.31
2023-02-06T02:21:43.799Z,102975.44
2023-02-06T02:24:09.920Z,102973.63
2023-02-06T02:26:36.086Z,102967.53
2023-02-06T02:29:02.286Z,102975.19
2023-02-06T02:31:28.540Z,102973.13
2023-02-06T02:33:54.703Z,102969.28
2023-02-06T02:36:22.016Z,102968.84
2023-02-06T02:38:48.212Z,102970.09
2023-02-06T02:41:14.372Z,102967.84
2023-02-06T02:43:40.551Z,102968.50
2023-02-06T02:46:06.697Z,102966.41
2023-02-06T02:48:32.836Z,102963.47
2023-02-06T02:50:59.033Z,102964.88
2023-02-06T02:53:25.173Z,102962.84
2023-02-06T02:55:51.304Z,102965.13
2023-02-06T02:58:17.412Z,102968.38
2023-02-06T03:00:43.649Z,102967.44
2023-02-06T03:03:09.822Z,102969.13
2023-02-06T03:05:36.267Z,102960.69
2023-02-06T03:08:02.646Z,102975.06
2023-02-06T03:10:28.812Z,102975.59
2023-02-06T03:12:54.956Z,102976.63
2023-02-06T03:15:21.156Z,102971.47
2023-02-06T03:17:47.357Z,102953.13
2023-02-06T03:20:13.502Z,102971.38
2023-02-06T03:22:39.696Z,102982.34
2023-02-06T03:25:05.887Z,102986.50
2023-02-06T03:27:32.006Z,102978.78
2023-02-06T03:29:58.137Z,102982.28
2023-02-06T03:32:24.295Z,102978.00
2023-02-06T03:34:50.453Z,102983.31
2023-02-06T03:37:16.624Z,102990.19
2023-02-06T03:39:42.780Z,102983.31
2023-02-06T03:42:08.974Z,102985.78
2023-02-06T03:44:35.118Z,102984.78
2023-02-06T03:47:01.304Z,102997.41
2023-02-06T03:49:27.456Z,103008.44
2023-02-06T03:51:53.665Z,103000.59
2023-02-06T03:54:19.792Z,102996.25
2023-02-06T03:56:45.938Z,103007.50
2023-02-06T03:59:12.114Z,103016.22
2023-02-06T04:01:38.303Z,103014.28
2023-02-06T04:04:04.504Z,103017.97
2023-02-06T04:06:30.696Z,103015.50
2023-02-06T04:08:56.875Z,103010.41
2023-02-06T04:11:23.036Z,103011.38
2023-02-06T04:13:49.209Z,103013.06
2023-02-06T04:16:15.404Z,103011.25
2023-02-06T04:18:41.658Z,103013.72
2023-02-06T04:21:07.859Z,103023.91
2023-02-06T04:23:34.028Z,103007.56
2023-02-06T04:26:00.164Z,103002.22
2023-02-06T04:28:26.331Z,103015.72
2023-02-06T04:30:52.561Z,103003.47
2023-02-06T04:33:18.735Z,102995.72
2023-02-06T04:35:44.860Z,102999.03
2023-02-06T04:38:11.045Z,103000.44
2023-02-06T04:40:37.195Z,103003.91
2023-02-06T04:43:03.325Z,103004.25
2023-02-06T04:45:29.499Z,102990.84
2023-02-06T04:47:55.962Z,102994.44
2023-02-06T04:50:22.823Z,102994.28
2023-02-06T04:52:48.982Z,102994.19
2023-02-06T04:55:15.211Z,102996.41
2023-02-06T04:57:41.322Z,102985.56
2023-02-06T05:00:07.553Z,102983.72
2023-02-06T05:02:33.793Z,102991.28
2023-02-06T05:05:00.092Z,102989.63
2023-02-06T05:07:26.225Z,102995.44
2023-02-06T05:09:52.436Z,102992.50
2023-02-06T05:12:18.599Z,102998.91
2023-02-06T05:14:44.772Z,102995.88
2023-02-06T05:17:10.988Z,103002.81
2023-02-06T05:19:37.125Z,103009.47
2023-02-06T05:22:03.302Z,103006.88
2023-02-06T05:24:29.484Z,103004.47
2023-02-06T05:26:55.605Z,103002.75
2023-02-06T05:29:21.742Z,103003.47
2023-02-06T05:31:47.887Z,103003.28
2023-02-06T05:34:14.091Z,103001.19
2023-02-06T05:36:40.268Z,103000.03
2023-02-06T05:39:06.404Z,102995.84
2023-02-06T05:41:32.594Z,102997.09
2023-02-06T05:43:58.770Z,103001.19
2023-02-06T05:46:24.992Z,103008.75
2023-02-06T05:48:51.221Z,103019.84
2023-02-06T05:51:17.405Z,103019.44
2023-02-06T05:53:43.572Z,103017.50
2023-02-06T05:56:09.759Z,103025.13
2023-02-06T05:58:35.925Z,103032.41
2023-02-06T06:01:02.118Z,103025.94
2023-02-06T06:03:28.318Z,103027.19
2023-02-06T06:05:54.504Z,103023.09
2023-02-06T06:08:20.649Z,103013.97
2023-02-06T06:10:46.933Z,103002.91
2023-02-06T06:13:13.129Z,103010.72
2023-02-06T06:15:39.250Z,103010.66
2023-02-06T06:18:05.601Z,103006.38
2023-02-06T06:20:31.763Z,103008.09
2023-02-06T06:22:57.891Z,103004.59
2023-02-06T06:25:24.053Z,102999.66
2023-02-06T06:27:50.255Z,103011.16
2023-02-06T06:30:16.498Z,103010.69
2023-02-06T06:32:42.716Z,103003.00
2023-02-06T06:35:08.957Z,103010.06
2023-02-06T06:37:35.127Z,102998.84
2023-02-06T06:40:01.303Z,103006.75
2023-02-06T06:42:27.462Z,103012.03
2023-02-06T06:44:53.619Z,103013.75
2023-02-06T06:47:19.825Z,103010.47
2023-02-06T06:49:45.977Z,103012.28
2023-02-06T06:52:24.150Z,103002.94
2023-02-06T06:54:52.309Z,103001.53
2023-02-06T06:57:18.821Z,102994.84
2023-02-06T06:59:45.036Z,103000.06
2023-02-06T07:02:11.143Z,103005.44
2023-02-06T07:04:37.264Z,103006.47
2023-02-06T07:07:03.470Z,103016.09
2023-02-06T07:09:29.675Z,103018.00
2023-02-06T07:11:55.793Z,103009.66
2023-02-06T07:14:21.985Z,103014.88
2023-02-06T07:16:48.196Z,103005.53
2023-02-06T07:19:14.374Z,103027.03
2023-02-06T07:21:40.592Z,103033.06
2023-02-06T07:24:06.788Z,103025.25
2023-02-06T07:26:32.943Z,103016.09
2023-02-06T07:28:59.111Z,103008.38
2023-02-06T07:31:25.299Z,103007.63
2023-02-06T07:33:51.530Z,102997.72
2023-02-06T07:36:17.678Z,102992.72
2023-02-06T07:38:43.818Z,102984.38
2023-02-06T07:41:11.786Z,102995.53
2023-02-06T07:43:38.782Z,102999.03
2023-02-06T07:46:05.013Z,103004.06
2023-02-06T07:48:31.261Z,103002.19
2023-02-06T07:50:57.446Z,103002.25
2023-02-06T07:53:23.645Z,103001.31
2023-02-06T07:55:49.803Z,103002.97
2023-02-06T07:58:15.999Z,103000.34
2023-02-06T08:00:42.218Z,103008.19
2023-02-06T08:03:08.395Z,103010.13
2023-02-06T08:05:38.046Z,103006.84
2023-02-06T08:08:04.305Z,103004.31
2023-02-06T08:10:30.425Z,102998.47
2023-02-06T08:12:56.635Z,103000.09
2023-02-06T08:15:22.774Z,103002.75
2023-02-06T08:17:48.954Z,102996.75
2023-02-06T08:20:15.124Z,103007.97
2023-02-06T08:22:41.285Z,102999.47
2023-02-06T08:25:07.477Z,102994.44
2023-02-06T08:27:33.604Z,103000.44
2023-02-06T08:29:59.764Z,103005.75
2023-02-06T08:32:25.923Z,103005.69
2023-02-06T08:34:52.117Z,103004.72
2023-02-06T08:37:18.255Z,102999.63
2023-02-06T08:39:44.392Z,102988.59
2023-02-06T08:42:10.563Z,102994.06
2023-02-06T08:44:36.726Z,103004.50
2023-02-06T08:47:09.956Z,102997.06
2023-02-06T08:49:36.921Z,103002.50
2023-02-06T08:52:03.188Z,102991.47
2023-02-06T08:54:29.302Z,102991.50
2023-02-06T08:56:55.468Z,102986.53
2023-02-06T08:59:21.632Z,102983.63
2023-02-06T09:01:47.839Z,102981.09
2023-02-06T09:04:14.067Z,102980.41
2023-02-06T09:06:40.231Z,102989.81
2023-02-06T09:09:06.402Z,102988.16
2023-02-06T09:11:32.598Z,102981.84
2023-02-06T09:13:58.790Z,102971.63
2023-02-06T09:16:25.002Z,102979.44
2023-02-06T09:18:53.848Z,102973.59
2023-02-06T09:21:20.224Z,102975.09
2023-02-06T09:23:46.393Z,102970.19
2023-02-06T09:26:12.591Z,102966.00
2023-02-06T09:28:38.929Z,102970.91
2023-02-06T09:31:05.184Z,102971.88
2023-02-06T09:33:31.431Z,102973.63
2023-02-06T09:35:57.798Z,102981.16
2023-02-06T09:38:24.622Z,102977.94
2023-02-06T09:40:50.747Z,102984.84
2023-02-06T09:43:16.898Z,102978.16
2023-02-06T09:45:43.082Z,102977.19
2023-02-06T09:48:09.249Z,102985.84
2023-02-06T09:50:35.455Z,102989.41
2023-02-06T09:53:01.605Z,102997.09
2023-02-06T09:55:27.781Z,102986.03
2023-02-06T09:57:53.939Z,102970.59
2023-02-06T10:00:20.057Z,102959.38
2023-02-06T10:02:46.259Z,102951.81
2023-02-06T10:05:12.678Z,102953.03
2023-02-06T10:07:38.870Z,102954.25
2023-02-06T10:10:05.014Z,102952.06
2023-02-06T10:12:31.167Z,102940.19
2023-02-06T10:14:57.392Z,102939.81
2023-02-06T10:17:23.569Z,102928.91
2023-02-06T10:19:49.951Z,102935.16
2023-02-06T10:22:16.137Z,102926.78
2023-02-06T10:24:42.335Z,102930.19
2023-02-06T10:27:08.539Z,102926.06
2023-02-06T10:29:34.745Z,102928.59
2023-02-06T10:32:00.969Z,102914.31
2023-02-06T10:34:27.169Z,102916.53
2023-02-06T10:36:53.369Z,102913.97
2023-02-06T10:39:19.512Z,102902.78
2023-02-06T10:41:45.742Z,102906.00
2023-02-06T10:44:11.965Z,102893.13
2023-02-06T10:46:38.225Z,102896.81
2023-02-06T10:49:04.544Z,102894.34
2023-02-06T10:51:30.677Z,102907.16
2023-02-06T10:53:56.865Z,102907.38
2023-02-06T10:56:22.998Z,102902.03
2023-02-06T10:58:49.154Z,102900.47
2023-02-06T11:01:25.671Z,102897.81
2023-02-06T11:03:52.840Z,102883.00
2023-02-06T11:06:18.972Z,102889.63
2023-02-06T11:08:45.160Z,102885.19
2023-02-06T11:11:11.319Z,102878.84
2023-02-06T11:13:43.736Z,102883.16
2023-02-06T11:16:09.943Z,102882.94
2023-02-06T11:18:36.135Z,102875.22
2023-02-06T11:21:02.323Z,102874.69
2023-02-06T11:23:28.466Z,102873.94
2023-02-06T11:25:54.702Z,102875.56
2023-02-06T11:28:20.977Z,102867.13
2023-02-06T11:30:47.205Z,102863.84
2023-02-06T11:33:13.437Z,102860.81
2023-02-06T11:35:40.119Z,102857.56
2023-02-06T11:38:06.543Z,102853.81
2023-02-06T11:40:32.668Z,102845.72
2023-02-06T11:42:58.845Z,102842.38
2023-02-06T11:45:25.464Z,102839.41
2023-02-06T11:47:51.636Z,102841.69
2023-02-06T11:50:17.777Z,102833.19
2023-02-06T11:52:46.762Z,102833.38
2023-02-06T11:55:13.226Z,102830.91
2023-02-06T11:57:39.358Z,102823.97
2023-02-06T12:00:05.532Z,102827.88
2023-02-06T12:02:31.746Z,102827.88
2023-02-06T12:04:57.973Z,102829.84
2023-02-06T12:07:24.131Z,102824.22
2023-02-06T12:09:50.340Z,102831.25
2023-02-06T12:12:16.527Z,102809.84
2023-02-06T12:14:42.698Z,102798.31
2023-02-06T12:17:08.908Z,102783.75
2023-02-06T12:19:35.066Z,102787.00
2023-02-06T12:22:01.262Z,102784.38
2023-02-06T12:24:27.497Z,102779.78
2023-02-06T12:26:53.699Z,102803.59
2023-02-06T12:29:19.886Z,102787.81
2023-02-06T12:31:46.184Z,102785.28
2023-02-06T12:34:12.421Z,102778.22
2023-02-06T12:36:38.576Z,102774.44
2023-02-06T12:39:04.733Z,102766.97
2023-02-06T12:41:30.913Z,102779.88
2023-02-06T12:43:57.034Z,102778.09
2023-02-06T12:46:23.440Z,102779.69
2023-02-06T12:48:49.623Z,102783.81
2023-02-06T12:51:16.826Z,102791.41
2023-02-06T12:53:43.064Z,102784.41
2023-02-06T12:56:09.279Z,102775.75
2023-02-06T12:58:35.684Z,102763.00
2023-02-06T13:01:01.898Z,102754.56
2023-02-06T13:03:28.065Z,102756.28
2023-02-06T13:05:54.262Z,102748.66
2023-02-06T13:08:20.504Z,102747.03
2023-02-06T13:10:47.781Z,102746.94
2023-02-06T13:13:13.990Z,102747.75
2023-02-06T13:15:40.264Z,102751.09
2023-02-06T13:18:06.596Z,102754.72
2023-02-06T13:20:33.434Z,102752.97
2023-02-06T13:22:59.716Z,102746.88
2023-02-06T13:25:25.898Z,102740.78
2023-02-06T13:27:52.138Z,102730.25
2023-02-06T13:30:18.287Z,102726.84
2023-02-06T13:32:44.765Z,102724.34
2023-02-06T13:35:11.004Z,102742.50
2023-02-06T13:37:37.262Z,102738.13
2023-02-06T13:40:03.523Z,102729.34
2023-02-06T13:42:29.736Z,102727.44
2023-02-06T13:44:55.901Z,102734.31
2023-02-06T13:47:22.052Z,102727.28
2023-02-06T13:49:48.244Z,102733.06
2023-02-06T13:52:14.397Z,102728.94
2023-02-06T13:54:40.644Z,102726.66
2023-02-06T13:57:06.831Z,102712.97
2023-02-06T13:59:33.021Z,102716.63
2023-02-06T14:01:59.215Z,102714.84
2023-02-06T14:04:25.421Z,102721.47
2023-02-06T14:06:51.578Z,102733.41
2023-02-06T14:09:17.713Z,102732.28
2023-02-06T14:11:43.959Z,102731.59
2023-02-06T14:14:10.122Z,102733.38
2023-02-06T14:16:36.363Z,102732.63
2023-02-06T14:19:02.613Z,102724.16
2023-02-06T14:21:28.746Z,102734.63
2023-02-06T14:23:54.950Z,102732.19
2023-02-06T14:26:21.144Z,102720.09
2023-02-06T14:28:47.352Z,102723.59
2023-02-06T14:31:13.745Z,102727.06
2023-02-06T14:33:40.021Z,102721.06
2023-02-06T14:36:06.165Z,102712.41
2023-02-06T14:38:32.328Z,102720.22
2023-02-06T14:40:58.453Z,102713.28
2023-02-06T14:43:24.655Z,102710.69
2023-02-06T14:46:05.576Z,102720.22
2023-02-06T14:48:32.774Z,102715.91
2023-02-06T14:50:58.976Z,102711.56
2023-02-06T14:53:25.148Z,102714.94
2023-02-06T14:55:51.333Z,102708.03
2023-02-06T14:58:17.553Z,102705.19
2023-02-06T15:00:43.756Z,102716.31
2023-02-06T15:03:09.995Z,102711.97
2023-02-06T15:05:36.481Z,102715.59
2023-02-06T15:08:02.730Z,102706.13
2023-02-06T15:10:28.938Z,102706.91
2023-02-06T15:12:55.189Z,102714.63
2023-02-06T15:15:21.435Z,102711.09
2023-02-06T15:17:48.725Z,102716.13
2023-02-06T15:20:14.972Z,102711.66
2023-02-06T15:22:41.987Z,102699.47
2023-02-06T15:25:08.148Z,102700.16
2023-02-06T15:27:34.370Z,102676.56
2023-02-06T15:30:00.708Z,102704.16
2023-02-06T15:32:26.935Z,102703.25
2023-02-06T15:34:53.149Z,102713.50
2023-02-06T15:37:19.389Z,102708.22
2023-02-06T15:39:45.607Z,102710.78
2023-02-06T15:42:11.760Z,102709.81
2023-02-06T15:44:39.899Z,102711.50
2023-02-06T15:47:06.163Z,102708.88
2023-02-06T15:49:32.404Z,102707.97
2023-02-06T15:51:58.560Z,102704.47
2023-02-06T15:54:24.738Z,102708.78
2023-02-06T15:56:50.903Z,102702.66
2023-02-06T15:59:17.165Z,102709.50
2023-02-06T16:01:43.362Z,102705.00
2023-02-06T16:04:09.573Z,102709.22
2023-02-06T16:06:35.784Z,102710.06
2023-02-06T16:09:02.016Z,102710.06
2023-02-06T16:11:28.156Z,102718.63
2023-02-06T16:13:54.356Z,102721.16
2023-02-06T16:16:20.639Z,102716.81
2023-02-06T16:18:46.880Z,102728.88
2023-02-06T16:21:13.101Z,102726.13
2023-02-06T16:23:39.287Z,102729.41
2023-02-06T16:26:05.493Z,102735.41
2023-02-06T16:28:31.767Z,102734.41
2023-02-06T16:30:58.051Z,102723.09
2023-02-06T16:33:24.303Z,102735.78
2023-02-06T16:35:50.501Z,102735.50
2023-02-06T16:38:16.725Z,102736.06
2023-02-06T16:40:42.955Z,102744.28
2023-02-06T16:43:09.114Z,102743.25
2023-02-06T16:45:35.323Z,102751.66
2023-02-06T16:48:01.568Z,102761.94
2023-02-06T16:50:27.752Z,102754.16
2023-02-06T16:52:53.904Z,102759.31
2023-02-06T16:55:22.234Z,102760.28
2023-02-06T16:57:49.370Z,102772.44
2023-02-06T17:00:15.533Z,102763.16
2023-02-06T17:02:41.660Z,102763.50
2023-02-06T17:05:07.942Z,102764.63
2023-02-06T17:07:34.197Z,102759.59
2023-02-06T17:10:01.014Z,102758.16
2023-02-06T17:12:29.986Z,102744.69
2023-02-06T17:14:56.123Z,102748.25
2023-02-06T17:17:22.306Z,102753.53
2023-02-06T17:19:48.423Z,102763.69
2023-02-06T17:22:14.618Z,102756.09
2023-02-06T17:24:40.808Z,102756.13
2023-02-06T17:27:07.019Z,102756.91
2023-02-06T17:29:33.273Z,102757.66
2023-02-06T17:31:59.469Z,102761.00
2023-02-06T17:34:25.647Z,102754.00
2023-02-06T17:36:51.846Z,102762.41
2023-02-06T17:39:18.017Z,102763.09
2023-02-06T17:41:44.244Z,102753.53
2023-02-06T17:44:10.470Z,102750.03
2023-02-06T17:46:36.655Z,102747.31
2023-02-06T17:49:02.844Z,102738.66
2023-02-06T17:51:28.961Z,102742.63
2023-02-06T17:53:55.089Z,102745.72
2023-02-06T17:56:21.289Z,102742.09
2023-02-06T17:58:47.494Z,102738.75
2023-02-06T18:01:13.778Z,102729.09
2023-02-06T18:03:40.055Z,102730.66
2023-02-06T18:06:06.244Z,102731.38
2023-02-06T18:08:32.410Z,102722.34
2023-02-06T18:10:58.639Z,102728.22
2023-02-06T18:13:24.793Z,102729.06
2023-02-06T18:15:51.014Z,102730.19
2023-02-06T18:18:17.172Z,102724.13
2023-02-06T18:20:43.934Z,102722.59
2023-02-06T18:23:10.243Z,102720.13
2023-02-06T18:25:36.715Z,102726.22
2023-02-06T18:28:03.206Z,102719.44
2023-02-06T18:30:29.449Z,102715.16
2023-02-06T18:32:55.584Z,102712.47
2023-02-06T18:35:21.882Z,102712.69
2023-02-06T18:37:48.334Z,102717.09
2023-02-06T18:40:14.627Z,102717.75
2023-02-06T18:42:43.099Z,102712.44
2023-02-06T18:45:09.262Z,102716.50
2023-02-06T18:47:35.402Z,102697.31
2023-02-06T18:50:01.580Z,102712.97
2023-02-06T18:52:27.843Z,102714.84
2023-02-06T18:54:54.008Z,102719.84
2023-02-06T18:57:20.198Z,102714.06
2023-02-06T18:59:46.478Z,102713.16
2023-02-06T19:02:12.681Z,102706.38
2023-02-06T19:04:38.894Z,102708.94
2023-02-06T19:07:05.102Z,102716.66
2023-02-06T19:09:31.290Z,102726.03
2023-02-06T19:11:57.475Z,102723.28
2023-02-06T19:14:23.656Z,102719.91
2023-02-06T19:16:49.807Z,102728.41
2023-02-06T19:19:16.095Z,102725.53
2023-02-06T19:21:42.520Z,102725.63
2023-02-06T19:24:11.541Z,102725.53
2023-02-06T19:26:38.061Z,102729.72
2023-02-06T19:31:48.402Z,102750.09
2023-02-06T19:34:14.529Z,102752.88
2023-02-06T19:36:40.883Z,102758.06
2023-02-06T19:39:07.422Z,102753.91
2023-02-06T19:41:33.722Z,102753.97
2023-02-06T19:44:00.099Z,102759.53
2023-02-06T19:46:26.258Z,102747.47
2023-02-06T19:48:52.515Z,102744.13
2023-02-06T19:51:19.089Z,102746.69
2023-02-06T19:53:45.750Z,102743.22
2023-02-06T19:56:11.973Z,102746.41
2023-02-06T19:58:40.638Z,102747.34
2023-02-06T20:01:06.846Z,102756.69
2023-02-06T20:03:36.471Z,102752.09
2023-02-06T20:06:02.769Z,102762.31
2023-02-06T20:08:29.258Z,102765.91
2023-02-06T20:10:55.594Z,102769.44
2023-02-06T20:13:22.192Z,102774.66
2023-02-06T20:15:53.302Z,102787.16
2023-02-06T20:18:19.625Z,102788.19
2023-02-06T20:20:45.944Z,102789.91
2023-02-06T20:23:12.239Z,102790.59
2023-02-06T20:25:38.531Z,102797.00
2023-02-06T20:28:04.795Z,102805.50
2023-02-06T20:30:35.337Z,102803.69
2023-02-06T20:33:03.587Z,102790.19
2023-02-06T20:35:29.949Z,102795.31
2023-02-06T20:37:57.602Z,102797.88
2023-02-06T20:40:23.817Z,102791.00
2023-02-06T20:42:58.285Z,102790.69
2023-02-06T20:45:24.521Z,102799.00
2023-02-06T20:47:53.768Z,102799.50
2023-02-06T20:50:20.011Z,102799.25
2023-02-06T20:52:46.551Z,102793.56
2023-02-06T20:55:12.696Z,102795.72
2023-02-06T20:57:38.857Z,102794.78
2023-02-06T21:00:04.996Z,102799.97
2023-02-06T21:02:31.251Z,102799.78
2023-02-06T21:04:57.509Z,102791.16
2023-02-06T21:07:23.659Z,102796.81
2023-02-06T21:09:49.834Z,102799.38
2023-02-06T21:12:16.009Z,102791.09
2023-02-06T21:14:42.223Z,102799.25
2023-02-06T21:17:08.416Z,102792.09
2023-02-06T21:19:34.590Z,102790.19
2023-02-06T21:22:00.756Z,102787.56
2023-02-06T21:24:26.906Z,102786.81
2023-02-06T21:26:53.024Z,102787.72
2023-02-06T21:29:21.242Z,102781.00
2023-02-06T21:31:47.439Z,102770.06
2023-02-06T21:34:13.612Z,102773.25
2023-02-06T21:36:39.803Z,102758.84
2023-02-06T21:39:06.078Z,102754.41
2023-02-06T21:41:32.261Z,102760.56
2023-02-06T21:43:58.440Z,102760.50
2023-02-06T21:46:24.694Z,102751.66
2023-02-06T21:48:50.863Z,102758.66
2023-02-06T21:51:17.030Z,102759.50
2023-02-06T21:53:43.238Z,102762.19
2023-02-06T21:56:09.455Z,102764.06
2023-02-06T21:58:35.623Z,102751.78
2023-02-06T22:01:04.271Z,102756.66
2023-02-06T22:03:30.507Z,102758.19
2023-02-06T22:05:58.775Z,102751.53
2023-02-06T22:08:24.917Z,102741.84
2023-02-06T22:10:51.079Z,102745.13
2023-02-06T22:13:17.302Z,102746.94
2023-02-06T22:15:43.484Z,102741.91
2023-02-06T22:18:11.983Z,102746.19
2023-02-06T22:20:38.168Z,102736.81
2023-02-06T22:23:04.404Z,102734.81
2023-02-06T22:25:30.563Z,102732.78
2023-02-06T22:27:56.725Z,102741.09
2023-02-06T22:30:22.882Z,102746.78
2023-02-06T22:32:49.093Z,102740.91
2023-02-06T22:35:15.258Z,102734.41
2023-02-06T22:37:43.681Z,102739.66
2023-02-06T22:40:10.637Z,102743.25
2023-02-06T22:42:36.784Z,102745.53
2023-02-06T22:45:02.950Z,102751.53
2023-02-06T22:47:29.124Z,102749.78
2023-02-06T22:49:55.266Z,102749.72
2023-02-06T22:52:21.388Z,102751.25
2023-02-06T22:54:47.535Z,102770.78
2023-02-06T22:57:13.710Z,102765.63
2023-02-06T22:59:39.908Z,102765.75
2023-02-06T23:02:06.116Z,102774.03
2023-02-06T23:04:32.354Z,102776.28
2023-02-06T23:06:58.554Z,102779.91
2023-02-06T23:09:24.810Z,102779.41
2023-02-06T23:11:50.947Z,102780.44
2023-02-06T23:14:17.135Z,102770.41
2023-02-06T23:16:43.540Z,102779.94
2023-02-06T23:19:09.896Z,102783.72
2023-02-06T23:21:36.060Z,102774.22
2023-02-06T23:24:02.228Z,102787.88
2023-02-06T23:26:28.392Z,102790.56
2023-02-06T23:28:54.508Z,102791.97
2023-02-06T23:31:20.727Z,102784.16
2023-02-06T23:33:46.892Z,102791.66
2023-02-06T23:36:13.143Z,102782.09
2023-02-06T23:38:39.306Z,102791.84
2023-02-06T23:41:05.474Z,102806.31
2023-02-06T23:43:31.670Z,102800.66
2023-02-06T23:45:57.930Z,102802.16
2023-02-06T23:48:24.129Z,102802.94
2023-02-06T23:50:50.255Z,102816.88
2023-02-06T23:53:16.409Z,102813.31
2023-02-06T23:55:42.547Z,102820.13
2023-02-06T23:58:08.752Z,102819.97
